createdAt,value
2022-09-12T00:00:15.874Z,99.90
2022-09-12T00:02:42.823Z,99.90
2022-09-12T00:05:09.895Z,99.90
2022-09-12T00:07:36.822Z,99.90
2022-09-12T00:10:04.236Z,99.90
2022-09-12T00:12:31.226Z,99.90
2022-09-12T00:14:58.240Z,99.90
2022-09-12T00:17:25.164Z,99.90
2022-09-12T00:19:52.305Z,99.90
2022-09-12T00:22:19.185Z,99.90
2022-09-12T00:24:46.083Z,99.90
2022-09-12T00:27:13.412Z,99.90
2022-09-12T00:29:40.302Z,99.90
2022-09-12T00:32:07.187Z,99.90
2022-09-12T00:34:34.110Z,99.90
2022-09-12T00:37:01.015Z,99.90
2022-09-12T00:39:28.139Z,99.90
2022-09-12T00:41:55.095Z,99.90
2022-09-12T00:44:21.937Z,99.90
2022-09-12T00:46:51.268Z,99.90
2022-09-12T00:49:52.465Z,99.90
2022-09-12T00:52:28.363Z,99.90
2022-09-12T00:55:01.514Z,99.90
2022-09-12T00:57:53.842Z,99.90
2022-09-12T01:00:23.406Z,99.90
2022-09-12T01:02:57.307Z,99.90
2022-09-12T01:05:26.133Z,99.90
2022-09-12T01:07:53.254Z,99.90
2022-09-12T01:10:20.427Z,99.90
2022-09-12T01:12:48.826Z,99.90
2022-09-12T01:15:15.800Z,99.90
2022-09-12T01:17:51.746Z,99.90
2022-09-12T01:20:56.099Z,99.90
2022-09-12T01:23:41.454Z,99.90
2022-09-12T01:26:30.585Z,99.90
2022-09-12T01:29:14.362Z,99.90
2022-09-12T01:32:10.740Z,99.90
2022-09-12T01:34:52.424Z,99.90
2022-09-12T01:37:49.661Z,99.90
2022-09-12T01:40:25.380Z,99.90
2022-09-12T01:42:53.027Z,99.90
2022-09-12T01:45:43.686Z,99.90
2022-09-12T01:48:24.701Z,99.90
2022-09-12T01:51:13.893Z,99.90
2022-09-12T01:53:51.129Z,99.90
2022-09-12T01:56:29.812Z,99.90
2022-09-12T01:59:01.378Z,99.90
2022-09-12T02:01:32.008Z,99.90
2022-09-12T02:04:09.422Z,99.90
2022-09-12T02:06:44.214Z,99.90
2022-09-12T02:09:18.426Z,99.90
2022-09-12T02:11:46.448Z,99.90
2022-09-12T02:14:21.764Z,99.90
2022-09-12T02:16:54.608Z,99.90
2022-09-12T02:19:23.541Z,99.90
2022-09-12T02:22:02.785Z,99.90
2022-09-12T02:24:34.030Z,99.90
2022-09-12T02:27:06.153Z,99.90
2022-09-12T02:29:33.126Z,99.90
2022-09-12T02:32:06.049Z,99.90
2022-09-12T02:34:46.392Z,99.90
2022-09-12T02:37:19.257Z,99.90
2022-09-12T02:39:47.042Z,99.90
2022-09-12T02:42:14.220Z,99.90
2022-09-12T02:44:41.782Z,99.90
2022-09-12T02:47:18.572Z,99.90
2022-09-12T02:49:46.617Z,99.90
2022-09-12T02:52:13.491Z,99.90
2022-09-12T02:54:41.192Z,99.90
2022-09-12T02:57:23.112Z,99.90
2022-09-12T02:59:53.273Z,99.90
2022-09-12T03:02:48.767Z,99.90
2022-09-12T03:05:47.319Z,99.90
2022-09-12T03:08:33.040Z,99.90
2022-09-12T03:11:34.333Z,99.90
2022-09-12T03:14:27.871Z,99.90
2022-09-12T03:17:07.400Z,99.90
2022-09-12T03:19:48.669Z,99.90
2022-09-12T03:22:21.522Z,99.90
2022-09-12T03:24:51.329Z,99.90
2022-09-12T03:27:21.097Z,99.90
2022-09-12T03:29:48.959Z,99.90
2022-09-12T03:32:15.995Z,99.90
2022-09-12T03:34:42.917Z,99.90
2022-09-12T03:37:09.982Z,99.90
2022-09-12T03:39:36.868Z,99.90
2022-09-12T03:42:03.886Z,99.90
2022-09-12T03:44:30.797Z,99.90
2022-09-12T03:46:57.706Z,99.90
2022-09-12T03:49:24.682Z,99.90
2022-09-12T03:51:51.573Z,99.90
2022-09-12T03:54:18.555Z,99.90
2022-09-12T03:56:45.489Z,99.90
2022-09-12T03:59:12.344Z,99.90
2022-09-12T04:01:39.305Z,99.90
2022-09-12T04:04:06.219Z,99.90
2022-09-12T04:06:33.102Z,99.90
2022-09-12T04:09:00.051Z,99.90
2022-09-12T04:11:26.965Z,99.90
2022-09-12T04:13:54.277Z,99.90
2022-09-12T04:16:21.439Z,99.90
2022-09-12T04:18:48.538Z,99.90
2022-09-12T04:21:18.786Z,99.90
2022-09-12T04:23:46.194Z,99.90
2022-09-12T04:26:13.964Z,99.90
2022-09-12T04:28:41.965Z,99.90
2022-09-12T04:31:15.792Z,99.90
2022-09-12T04:33:42.841Z,99.90
2022-09-12T04:36:12.577Z,99.90
2022-09-12T04:38:39.557Z,99.90
2022-09-12T04:41:18.815Z,99.90
2022-09-12T04:43:46.760Z,99.90
2022-09-12T04:46:15.428Z,99.90
2022-09-12T04:48:43.439Z,99.90
2022-09-12T04:51:14.236Z,99.90
2022-09-12T04:53:42.381Z,99.90
2022-09-12T04:56:11.546Z,99.90
2022-09-12T04:58:39.083Z,99.90
2022-09-12T05:01:11.784Z,99.90
2022-09-12T05:03:39.898Z,99.90
2022-09-12T05:06:09.818Z,99.90
2022-09-12T05:08:37.002Z,99.90
2022-09-12T05:11:12.188Z,99.90
2022-09-12T05:13:40.312Z,99.90
2022-09-12T05:16:10.013Z,99.90
2022-09-12T05:18:37.556Z,99.90
2022-09-12T05:21:07.247Z,99.90
2022-09-12T05:23:34.886Z,99.90
2022-09-12T05:26:02.753Z,99.90
2022-09-12T05:28:37.855Z,99.90
2022-09-12T05:31:06.242Z,99.90
2022-09-12T05:33:34.953Z,99.90
2022-09-12T05:36:03.352Z,99.90
2022-09-12T05:38:30.293Z,99.90
2022-09-12T05:41:18.219Z,99.90
2022-09-12T05:43:47.711Z,99.90
2022-09-12T05:46:17.323Z,99.90
2022-09-12T05:48:46.153Z,99.90
2022-09-12T05:51:36.873Z,99.90
2022-09-12T05:54:04.811Z,99.90
2022-09-12T05:56:34.771Z,99.90
2022-09-12T05:59:04.690Z,99.90
2022-09-12T06:01:33.490Z,99.90
2022-09-12T06:04:02.340Z,99.90
2022-09-12T06:06:30.915Z,99.90
2022-09-12T06:09:02.000Z,99.90
2022-09-12T06:11:31.193Z,99.90
2022-09-12T06:13:59.253Z,99.90
2022-09-12T06:16:31.728Z,99.90
2022-09-12T06:19:01.069Z,99.90
2022-09-12T06:21:29.049Z,99.90
2022-09-12T06:23:56.492Z,99.90
2022-09-12T06:26:26.364Z,99.90
2022-09-12T06:28:55.237Z,99.90
2022-09-12T06:31:31.862Z,99.90
2022-09-12T06:34:01.839Z,99.90
2022-09-12T06:36:31.860Z,99.90
2022-09-12T06:39:05.376Z,99.90
2022-09-12T06:41:33.380Z,99.90
2022-09-12T06:44:01.330Z,99.90
2022-09-12T06:46:28.903Z,99.90
2022-09-12T06:49:00.679Z,99.90
2022-09-12T06:51:29.465Z,99.90
2022-09-12T06:53:57.539Z,99.90
2022-09-12T06:56:26.862Z,99.90
2022-09-12T06:58:56.147Z,99.90
2022-09-12T07:01:31.403Z,99.90
2022-09-12T07:04:00.789Z,99.90
2022-09-12T07:06:32.114Z,99.90
2022-09-12T07:09:00.341Z,99.90
2022-09-12T07:11:30.740Z,99.90
2022-09-12T07:14:00.105Z,99.90
2022-09-12T07:16:27.354Z,99.90
2022-09-12T07:18:59.449Z,99.90
2022-09-12T07:21:27.257Z,99.90
2022-09-12T07:23:57.109Z,99.90
2022-09-12T07:26:29.083Z,99.90
2022-09-12T07:29:12.839Z,99.90
2022-09-12T07:31:45.155Z,99.90
2022-09-12T07:34:12.231Z,99.90
2022-09-12T07:36:39.375Z,99.90
2022-09-12T07:39:06.357Z,99.90
2022-09-12T07:41:36.290Z,99.90
2022-09-12T07:44:06.717Z,99.90
2022-09-12T07:46:34.227Z,99.90
2022-09-12T07:49:02.312Z,99.90
2022-09-12T07:51:30.474Z,99.90
2022-09-12T07:53:58.184Z,99.90
2022-09-12T07:56:30.166Z,99.90
2022-09-12T07:58:59.116Z,99.90
2022-09-12T08:01:26.771Z,99.90
2022-09-12T08:03:56.997Z,99.90
2022-09-12T08:06:25.272Z,99.90
2022-09-12T08:08:54.622Z,99.90
2022-09-12T08:11:23.796Z,99.90
2022-09-12T08:13:55.324Z,99.90
2022-09-12T08:16:25.281Z,99.90
2022-09-12T08:18:52.242Z,99.90
2022-09-12T08:21:27.028Z,99.90
2022-09-12T08:23:56.507Z,99.90
2022-09-12T08:26:24.841Z,99.90
2022-09-12T08:28:52.136Z,99.90
2022-09-12T08:31:20.714Z,99.90
2022-09-12T08:33:48.144Z,99.90
2022-09-12T08:36:24.540Z,99.90
2022-09-12T08:38:59.307Z,99.90
2022-09-12T08:41:35.336Z,99.90
2022-09-12T08:44:40.004Z,99.90
2022-09-12T08:47:25.180Z,99.90
2022-09-12T08:50:02.834Z,99.90
2022-09-12T08:52:53.173Z,99.30
2022-09-12T08:55:44.805Z,99.90
2022-09-12T08:58:23.947Z,99.90
2022-09-12T09:01:13.081Z,99.40
2022-09-12T09:04:02.122Z,99.90
2022-09-12T09:06:55.190Z,98.50
2022-09-12T09:09:48.339Z,91.70
2022-09-12T09:12:36.872Z,98.10
2022-09-12T09:15:25.135Z,90.80
2022-09-12T09:18:02.151Z,94.40
2022-09-12T09:20:32.030Z,93.70
2022-09-12T09:23:20.924Z,90.50
2022-09-12T09:26:10.603Z,85.80
2022-09-12T09:28:54.517Z,95.80
2022-09-12T09:31:27.287Z,79.70
2022-09-12T09:33:57.814Z,89.00
2022-09-12T09:37:13.906Z,91.30
2022-09-12T09:40:15.931Z,83.60
2022-09-12T09:42:42.933Z,85.20
2022-09-12T09:45:21.054Z,85.90
2022-09-12T09:48:08.349Z,80.40
2022-09-12T09:50:36.104Z,81.10
2022-09-12T09:53:04.438Z,90.80
2022-09-12T09:55:38.599Z,90.90
2022-09-12T09:58:05.749Z,92.00
2022-09-12T10:00:37.882Z,87.40
2022-09-12T10:03:13.809Z,88.40
2022-09-12T10:06:13.071Z,82.60
2022-09-12T10:08:40.675Z,85.90
2022-09-12T10:11:16.958Z,94.80
2022-09-12T10:13:57.135Z,90.10
2022-09-12T10:16:29.024Z,87.30
2022-09-12T10:19:01.779Z,87.30
2022-09-12T10:21:41.325Z,79.60
2022-09-12T10:24:28.394Z,74.80
2022-09-12T10:27:05.834Z,82.00
2022-09-12T10:29:39.595Z,88.60
2022-09-12T10:32:09.276Z,82.70
2022-09-12T10:34:42.735Z,76.80
2022-09-12T10:37:34.433Z,80.80
2022-09-12T10:40:05.837Z,81.00
2022-09-12T10:42:44.147Z,73.80
2022-09-12T10:45:37.974Z,73.50
2022-09-12T10:48:30.377Z,72.90
2022-09-12T10:50:59.326Z,74.50
2022-09-12T10:53:34.127Z,76.90
2022-09-12T10:56:13.601Z,78.00
2022-09-12T10:59:07.498Z,72.60
2022-09-12T11:01:47.318Z,78.00
2022-09-12T11:04:56.203Z,73.00
2022-09-12T11:07:51.070Z,72.50
2022-09-12T11:10:45.700Z,79.60
2022-09-12T11:13:27.575Z,70.40
2022-09-12T11:16:13.271Z,72.00
2022-09-12T11:19:05.083Z,73.00
2022-09-12T11:21:41.482Z,66.20
2022-09-12T11:24:17.516Z,67.40
2022-09-12T11:27:20.490Z,74.20
2022-09-12T11:29:59.749Z,75.50
2022-09-12T11:32:46.163Z,66.00
2022-09-12T11:35:17.585Z,67.10
2022-09-12T11:38:17.512Z,68.10
2022-09-12T11:40:50.109Z,66.50
2022-09-12T11:43:31.420Z,68.00
2022-09-12T11:46:21.955Z,69.80
2022-09-12T11:48:57.529Z,67.90
2022-09-12T11:51:29.021Z,70.30
2022-09-12T11:54:14.059Z,74.60
2022-09-12T11:56:46.141Z,71.60
2022-09-12T11:59:51.680Z,65.70
2022-09-12T12:02:40.006Z,64.60
2022-09-12T12:05:20.598Z,64.20
2022-09-12T12:07:53.919Z,66.20
2022-09-12T12:10:26.725Z,67.50
2022-09-12T12:12:56.262Z,64.40
2022-09-12T12:15:25.837Z,69.70
2022-09-12T12:18:20.429Z,66.10
2022-09-12T12:20:48.241Z,64.60
2022-09-12T12:23:34.437Z,67.40
2022-09-12T12:26:04.289Z,60.70
2022-09-12T12:28:59.241Z,59.40
2022-09-12T12:31:26.544Z,59.00
2022-09-12T12:34:00.700Z,60.90
2022-09-12T12:36:41.447Z,61.50
2022-09-12T12:39:33.095Z,58.30
2022-09-12T12:42:00.764Z,57.30
2022-09-12T12:44:45.833Z,62.20
2022-09-12T12:47:25.783Z,61.80
2022-09-12T12:50:16.028Z,60.30
2022-09-12T12:52:50.628Z,59.90
2022-09-12T12:55:38.963Z,60.30
2022-09-12T12:58:08.023Z,58.80
2022-09-12T13:00:39.783Z,58.30
2022-09-12T13:03:06.984Z,59.60
2022-09-12T13:05:57.651Z,57.50
2022-09-12T13:08:28.859Z,60.00
2022-09-12T13:11:03.185Z,60.90
2022-09-12T13:13:41.204Z,62.90
2022-09-12T13:16:11.112Z,61.20
2022-09-12T13:18:47.678Z,59.50
2022-09-12T13:21:18.580Z,58.50
2022-09-12T13:24:00.741Z,58.30
2022-09-12T13:26:27.860Z,60.30
2022-09-12T13:29:10.251Z,59.90
2022-09-12T13:31:37.912Z,61.60
2022-09-12T13:34:08.437Z,61.70
2022-09-12T13:37:05.146Z,62.30
2022-09-12T13:39:42.743Z,61.70
2022-09-12T13:42:32.365Z,62.40
2022-09-12T13:45:04.893Z,63.90
2022-09-12T13:47:44.576Z,63.80
2022-09-12T13:50:31.933Z,63.50
2022-09-12T13:53:03.933Z,63.50
2022-09-12T13:55:42.607Z,63.80
2022-09-12T13:58:23.062Z,65.20
2022-09-12T14:01:10.043Z,63.90
2022-09-12T14:04:00.952Z,64.40
2022-09-12T14:06:28.515Z,63.40
2022-09-12T14:09:01.580Z,63.30
2022-09-12T14:11:30.802Z,63.30
2022-09-12T14:13:58.378Z,61.70
2022-09-12T14:16:29.162Z,61.80
2022-09-12T14:18:57.333Z,63.90
2022-09-12T14:21:35.017Z,62.40
2022-09-12T14:24:05.153Z,59.70
2022-09-12T14:26:37.650Z,60.40
2022-09-12T14:29:08.942Z,62.00
2022-09-12T14:31:38.549Z,59.50
2022-09-12T14:34:16.315Z,58.90
2022-09-12T14:36:47.846Z,60.10
2022-09-12T14:39:41.552Z,60.70
2022-09-12T14:42:21.344Z,60.00
2022-09-12T14:45:01.907Z,61.00
2022-09-12T14:47:39.506Z,60.30
2022-09-12T14:50:22.027Z,60.30
2022-09-12T14:53:03.089Z,62.80
2022-09-12T14:55:32.230Z,60.70
2022-09-12T14:58:14.772Z,63.10
2022-09-12T15:01:00.401Z,60.70
2022-09-12T15:03:30.355Z,61.60
2022-09-12T15:05:58.367Z,61.60
2022-09-12T15:08:25.663Z,61.80
2022-09-12T15:10:52.835Z,63.40
2022-09-12T15:13:23.162Z,63.80
2022-09-12T15:15:55.935Z,63.20
2022-09-12T15:18:27.825Z,63.20
2022-09-12T15:21:11.975Z,67.50
2022-09-12T15:23:47.160Z,65.20
2022-09-12T15:26:18.489Z,64.70
2022-09-12T15:28:45.756Z,64.90
2022-09-12T15:31:30.525Z,63.20
2022-09-12T15:33:59.294Z,65.10
2022-09-12T15:36:26.717Z,64.20
2022-09-12T15:38:53.843Z,63.20
2022-09-12T15:41:23.947Z,66.00
2022-09-12T15:43:51.361Z,62.00
2022-09-12T15:46:20.388Z,62.30
2022-09-12T15:48:47.414Z,61.30
2022-09-12T15:51:22.215Z,60.40
2022-09-12T15:53:50.969Z,63.30
2022-09-12T15:56:20.310Z,64.10
2022-09-12T15:58:58.343Z,66.10
2022-09-12T16:01:27.904Z,67.50
2022-09-12T16:03:55.115Z,69.10
2022-09-12T16:06:22.606Z,70.20
2022-09-12T16:08:49.722Z,71.10
2022-09-12T16:11:23.073Z,67.80
2022-09-12T16:13:52.065Z,69.50
2022-09-12T16:16:19.054Z,69.90
2022-09-12T16:18:46.135Z,71.40
2022-09-12T16:21:15.568Z,72.10
2022-09-12T16:23:45.967Z,72.90
2022-09-12T16:26:13.495Z,75.30
2022-09-12T16:28:40.831Z,78.10
2022-09-12T16:31:10.853Z,82.70
2022-09-12T16:33:39.182Z,87.00
2022-09-12T16:36:11.545Z,89.40
2022-09-12T16:38:46.714Z,92.20
2022-09-12T16:41:15.978Z,93.40
2022-09-12T16:43:43.577Z,95.40
2022-09-12T16:46:22.411Z,96.50
2022-09-12T16:48:52.612Z,98.70
2022-09-12T16:51:30.850Z,99.50
2022-09-12T16:53:57.980Z,99.90
2022-09-12T16:56:25.559Z,99.90
2022-09-12T16:58:52.786Z,99.90
2022-09-12T17:01:25.551Z,99.90
2022-09-12T17:03:57.783Z,99.90
2022-09-12T17:06:26.114Z,99.90
2022-09-12T17:08:54.849Z,99.90
2022-09-12T17:11:31.039Z,99.90
2022-09-12T17:14:07.324Z,99.90
2022-09-12T17:16:37.472Z,99.90
2022-09-12T17:19:05.590Z,99.90
2022-09-12T17:21:33.147Z,99.90
2022-09-12T17:24:00.172Z,99.90
2022-09-12T17:26:27.483Z,99.90
2022-09-12T17:28:54.403Z,99.90
2022-09-12T17:31:23.117Z,99.90
2022-09-12T17:33:50.128Z,99.90
2022-09-12T17:36:18.222Z,99.90
2022-09-12T17:38:46.531Z,99.90
2022-09-12T17:41:19.145Z,99.90
2022-09-12T17:43:53.196Z,99.90
2022-09-12T17:46:20.802Z,99.90
2022-09-12T17:48:56.486Z,99.90
2022-09-12T17:51:25.974Z,99.90
2022-09-12T17:53:59.282Z,99.90
2022-09-12T17:56:31.807Z,99.90
2022-09-12T17:58:59.691Z,99.90
2022-09-12T18:01:46.560Z,99.90
2022-09-12T18:04:13.807Z,99.90
2022-09-12T18:06:47.862Z,99.90
2022-09-12T18:09:17.810Z,99.90
2022-09-12T18:11:44.940Z,99.90
2022-09-12T18:14:14.171Z,99.90
2022-09-12T18:16:41.792Z,99.90
2022-09-12T18:19:08.899Z,99.90
2022-09-12T18:22:24.408Z,99.90
2022-09-12T18:24:51.486Z,99.90
2022-09-12T18:27:18.355Z,99.90
2022-09-12T18:29:58.934Z,99.90
2022-09-12T18:32:32.139Z,99.90
2022-09-12T18:34:59.044Z,99.90
2022-09-12T18:37:33.152Z,99.90
2022-09-12T18:40:00.488Z,99.90
2022-09-12T18:42:27.580Z,99.90
2022-09-12T18:45:10.969Z,99.90
2022-09-12T18:47:38.024Z,99.90
2022-09-12T18:50:05.620Z,99.90
2022-09-12T18:52:32.487Z,99.90
2022-09-12T18:54:59.444Z,99.90
2022-09-12T18:57:26.399Z,99.90
2022-09-12T18:59:54.494Z,99.90
2022-09-12T19:02:21.422Z,99.90
2022-09-12T19:04:48.505Z,99.90
2022-09-12T19:07:17.178Z,99.90
2022-09-12T19:09:44.717Z,99.90
2022-09-12T19:12:11.726Z,99.90
2022-09-12T19:14:38.731Z,99.90
2022-09-12T19:17:06.076Z,99.90
2022-09-12T19:19:33.029Z,99.90
2022-09-12T19:21:59.956Z,99.90
2022-09-12T19:24:27.148Z,99.90
2022-09-12T19:26:54.045Z,99.90
2022-09-12T19:29:20.977Z,99.90
2022-09-12T19:31:47.913Z,99.90
2022-09-12T19:34:15.498Z,99.90
2022-09-12T19:36:47.148Z,99.90
2022-09-12T19:39:19.895Z,99.90
2022-09-12T19:41:47.558Z,99.90
2022-09-12T19:44:14.856Z,99.90
2022-09-12T19:46:42.067Z,99.90
2022-09-12T19:49:11.382Z,99.90
2022-09-12T19:51:38.264Z,99.90
2022-09-12T19:54:06.459Z,99.90
2022-09-12T19:56:33.361Z,99.90
2022-09-12T19:59:00.334Z,99.90
2022-09-12T20:01:30.741Z,99.90
2022-09-12T20:03:58.973Z,99.90
2022-09-12T20:06:27.106Z,99.90
2022-09-12T20:08:55.035Z,99.90
2022-09-12T20:11:23.720Z,99.90
2022-09-12T20:13:51.310Z,99.90
2022-09-12T20:16:29.172Z,99.90
2022-09-12T20:18:58.976Z,99.90
2022-09-12T20:21:36.913Z,99.90
2022-09-12T20:24:12.083Z,99.90
2022-09-12T20:26:40.010Z,99.90
2022-09-12T20:29:08.450Z,99.90
2022-09-12T20:31:36.976Z,99.90
2022-09-12T20:34:04.720Z,99.90
2022-09-12T20:36:32.063Z,99.90
2022-09-12T20:39:01.375Z,99.90
2022-09-12T20:41:31.082Z,99.90
2022-09-12T20:43:58.539Z,99.90
2022-09-12T20:46:27.214Z,99.90
2022-09-12T20:48:54.716Z,99.90
2022-09-12T20:51:22.724Z,99.90
2022-09-12T20:53:54.334Z,99.90
2022-09-12T20:56:22.135Z,99.90
2022-09-12T20:58:49.183Z,99.90
2022-09-12T21:01:16.865Z,99.90
2022-09-12T21:03:44.806Z,99.90
2022-09-12T21:06:14.372Z,99.90
2022-09-12T21:08:41.333Z,99.90
2022-09-12T21:11:08.558Z,99.90
2022-09-12T21:13:36.575Z,99.90
2022-09-12T21:16:05.000Z,99.90
2022-09-12T21:18:33.381Z,99.90
2022-09-12T21:21:00.588Z,99.90
2022-09-12T21:23:28.297Z,99.90
2022-09-12T21:25:55.407Z,99.90
2022-09-12T21:28:22.381Z,99.90
2022-09-12T21:30:50.110Z,99.90
2022-09-12T21:33:18.339Z,99.90
2022-09-12T21:35:45.922Z,99.90
2022-09-12T21:38:13.061Z,99.90
2022-09-12T21:40:39.977Z,99.90
2022-09-12T21:43:12.520Z,99.90
2022-09-12T21:45:40.555Z,99.90
2022-09-12T21:48:08.119Z,99.90
2022-09-12T21:50:35.085Z,99.90
2022-09-12T21:53:01.998Z,99.90
2022-09-12T21:55:29.290Z,99.90
2022-09-12T21:57:56.562Z,99.90
2022-09-12T22:00:24.051Z,99.90
2022-09-12T22:02:51.103Z,99.90
2022-09-12T22:05:21.423Z,99.90
2022-09-12T22:07:48.394Z,99.90
2022-09-12T22:10:15.351Z,99.90
2022-09-12T22:12:46.047Z,99.90
2022-09-12T22:15:38.952Z,99.90
2022-09-12T22:18:00.855Z,99.90
2022-09-12T22:20:27.776Z,99.90
2022-09-12T22:23:13.250Z,99.90
2022-09-12T22:25:40.381Z,99.90
2022-09-12T22:28:07.309Z,99.90
2022-09-12T22:30:34.231Z,99.90
2022-09-12T22:33:01.290Z,99.90
2022-09-12T22:35:28.220Z,99.90
2022-09-12T22:37:55.059Z,99.90
2022-09-12T22:40:22.145Z,99.90
2022-09-12T22:42:52.387Z,99.90
2022-09-12T22:45:19.965Z,99.90
2022-09-12T22:47:46.993Z,99.90
2022-09-12T22:50:14.422Z,99.90
2022-09-12T22:52:41.777Z,99.90
2022-09-12T22:55:09.825Z,99.90
2022-09-12T22:57:37.490Z,99.90
2022-09-12T23:00:08.062Z,99.90
2022-09-12T23:02:35.022Z,99.90
2022-09-12T23:05:02.834Z,99.90
2022-09-12T23:07:29.758Z,99.90
2022-09-12T23:09:57.000Z,99.90
2022-09-12T23:12:23.978Z,99.90
2022-09-12T23:14:50.869Z,99.90
2022-09-12T23:17:17.895Z,99.90
2022-09-12T23:19:44.768Z,99.90
2022-09-12T23:22:11.676Z,99.90
2022-09-12T23:24:38.896Z,99.90
2022-09-12T23:27:06.164Z,99.90
2022-09-12T23:29:35.489Z,99.90
2022-09-12T23:32:03.863Z,99.90
2022-09-12T23:34:31.057Z,99.90
2022-09-12T23:36:58.029Z,99.90
2022-09-12T23:39:25.049Z,99.90
2022-09-12T23:41:52.269Z,99.90
2022-09-12T23:44:19.236Z,99.90
2022-09-12T23:46:46.207Z,99.90
2022-09-12T23:49:13.251Z,99.90
2022-09-12T23:51:40.236Z,99.90
2022-09-12T23:54:07.171Z,99.90
2022-09-12T23:56:34.232Z,99.90
2022-09-12T23:59:01.224Z,99.90
